Time;durP1;ratioP1;P1;durP2;ratioP2;P2;SDS_P1;SDS_P2;PMS_P1;PMS_P2;Temp;Humidity;BMP_temperature;BMP_pressure;BME280_temperature;BME280_humidity;BME280_pressure;Samples;Min_cycle;Max_cycle;Signal;HPM_P1;HPM_P2
2021/05/28 00:00:04;;;;;;;5.60;4.40;;;;;;;10.49;90.30;99312.88;5008897;28;20030;-69
2021/05/28 00:02:29;;;;;;;10.45;5.10;;;;;;;10.44;90.23;99301.78;5010093;28;20033;-70
2021/05/28 00:04:55;;;;;;;6.35;4.55;;;;;;;10.44;90.51;99308.03;5008818;28;20033;-70
2021/05/28 00:07:20;;;;;;;7.35;5.07;;;;;;;10.41;91.00;99307.59;5010194;28;20109;-71
2021/05/28 00:09:45;;;;;;;7.78;4.85;;;;;;;10.37;90.96;99296.28;5010359;28;20030;-70
2021/05/28 00:12:11;;;;;;;7.65;5.20;;;;;;;10.47;90.88;99314.94;5009849;28;20037;-70
2021/05/28 00:14:36;;;;;;;7.50;4.80;;;;;;;10.40;91.19;99304.03;5009502;28;20034;-71
2021/05/28 00:17:02;;;;;;;9.55;4.97;;;;;;;10.42;91.23;99306.53;5010284;28;20029;-70
2021/05/28 00:19:27;;;;;;;6.25;4.72;;;;;;;10.42;90.93;99311.94;5009668;28;20449;-70
2021/05/28 00:21:52;;;;;;;8.95;4.03;;;;;;;10.33;90.90;99291.47;5010249;28;20052;-71
2021/05/28 00:24:19;;;;;;;7.57;4.43;;;;;;;10.24;90.67;99280.72;5008765;28;20083;-70
2021/05/28 00:26:45;;;;;;;5.22;3.85;;;;;;;10.43;90.33;99308.25;5009163;28;20025;-70
2021/05/28 00:29:10;;;;;;;6.72;4.57;;;;;;;10.31;89.71;99297.06;5009702;28;20111;-70
2021/05/28 00:31:35;;;;;;;7.72;4.40;;;;;;;10.47;89.68;99294.13;5008724;28;20021;-70
2021/05/28 00:34:01;;;;;;;8.05;4.35;;;;;;;10.39;89.26;99291.53;5009291;28;20038;-70
2021/05/28 00:36:26;;;;;;;9.57;4.78;;;;;;;10.44;90.04;99299.09;5009388;28;20108;-70
2021/05/28 00:38:52;;;;;;;5.55;4.40;;;;;;;10.39;90.03;99299.66;5009566;28;20034;-70
2021/05/28 00:41:18;;;;;;;4.28;3.50;;;;;;;10.36;88.72;99296.50;5010077;28;20743;-70
2021/05/28 00:43:43;;;;;;;5.13;3.90;;;;;;;10.24;88.50;99278.03;5009573;28;20064;-70
2021/05/28 00:46:08;;;;;;;6.20;3.72;;;;;;;10.33;88.79;99303.13;5008930;28;20022;-70
2021/05/28 00:48:34;;;;;;;6.15;3.58;;;;;;;10.35;88.91;99300.19;5008187;28;20037;-70
2021/05/28 00:51:00;;;;;;;5.30;3.78;;;;;;;10.36;89.10;99302.72;5009837;28;20152;-71
2021/05/28 00:53:27;;;;;;;6.80;4.88;;;;;;;10.27;89.34;99293.91;5008825;28;20036;-70
2021/05/28 00:55:52;;;;;;;6.32;4.68;;;;;;;10.28;90.21;99306.38;5009144;28;20495;-70
2021/05/28 00:58:18;;;;;;;8.70;5.35;;;;;;;10.22;90.70;99290.06;5007791;28;20100;-70
2021/05/28 01:00:44;;;;;;;9.32;5.60;;;;;;;10.33;91.07;99315.81;5009171;28;20395;-71
2021/05/28 01:03:09;;;;;;;10.73;6.20;;;;;;;10.25;91.88;99305.91;4999152;28;20022;-70
2021/05/28 01:05:35;;;;;;;9.05;6.30;;;;;;;10.22;91.73;99298.16;5009176;28;20022;-70
2021/05/28 01:08:00;;;;;;;12.50;6.38;;;;;;;10.26;92.49;99304.84;5008497;28;20062;-71
2021/05/28 01:10:26;;;;;;;10.48;6.47;;;;;;;10.18;92.63;99303.09;5009538;28;20113;-71
2021/05/28 01:12:51;;;;;;;11.00;6.18;;;;;;;10.20;92.84;99309.16;5013294;28;20025;-71
2021/05/28 01:15:16;;;;;;;9.75;6.00;;;;;;;10.07;92.98;99290.06;5013423;28;20117;-71
2021/05/28 01:17:42;;;;;;;9.25;5.90;;;;;;;10.07;92.35;99299.00;5011399;28;20040;-71
2021/05/28 01:20:09;;;;;;;10.68;6.35;;;;;;;10.07;91.54;99304.41;5013437;28;20119;-70
2021/05/28 01:22:35;;;;;;;13.70;6.70;;;;;;;10.00;91.79;99297.25;5013250;28;20116;-71
2021/05/28 01:25:00;;;;;;;8.32;5.85;;;;;;;10.04;91.87;99303.97;5013299;28;20022;-70
2021/05/28 01:27:29;;;;;;;16.17;7.82;;;;;;;10.02;91.67;99306.00;5011325;28;20026;-70
2021/05/28 01:29:55;;;;;;;12.88;6.25;;;;;;;10.06;92.05;99304.59;5012789;28;20049;-71
2021/05/28 01:32:21;;;;;;;11.35;6.53;;;;;;;10.10;91.62;99300.50;5013070;28;20052;-70
2021/05/28 01:34:47;;;;;;;8.10;5.95;;;;;;;10.16;91.85;99302.44;5011944;28;20108;-70
2021/05/28 01:37:13;;;;;;;7.68;6.07;;;;;;;10.13;91.70;99308.22;5011273;28;20022;-70
2021/05/28 01:39:50;;;;;;;11.57;6.43;;;;;;;10.21;91.86;99318.94;5013238;28;20107;-70
2021/05/28 01:42:17;;;;;;;10.73;6.45;;;;;;;10.19;91.43;99312.91;5012771;28;20531;-69
2021/05/28 01:44:43;;;;;;;10.48;6.10;;;;;;;10.28;91.38;99322.59;5012320;28;20061;-70
2021/05/28 01:47:09;;;;;;;16.92;6.72;;;;;;;10.22;91.50;99326.03;5012674;28;20021;-70
2021/05/28 01:49:39;;;;;;;8.48;5.75;;;;;;;10.25;91.41;99333.78;5012603;28;20034;-71
2021/05/28 01:52:05;;;;;;;8.38;6.43;;;;;;;10.23;91.81;99316.91;5013623;28;20038;-69
2021/05/28 01:54:32;;;;;;;7.45;5.55;;;;;;;10.20;91.90;99322.69;5012098;28;20443;-70
2021/05/28 01:56:58;;;;;;;12.38;6.38;;;;;;;10.15;92.25;99326.97;5012073;28;20025;-69
2021/05/28 01:59:25;;;;;;;9.07;5.80;;;;;;;10.08;91.88;99337.69;5011697;28;20040;-70
2021/05/28 02:01:54;;;;;;;6.75;4.80;;;;;;;10.03;91.96;99327.47;5012616;28;20112;-69
2021/05/28 02:04:22;;;;;;;10.98;5.38;;;;;;;9.97;91.73;99324.66;5013005;28;20037;-70
2021/05/28 02:06:48;;;;;;;8.83;4.90;;;;;;;9.91;91.52;99320.00;5013084;28;20033;-70
2021/05/28 02:09:13;;;;;;;7.45;4.70;;;;;;;9.72;91.30;99306.03;5011507;28;20558;-70
2021/05/28 02:11:39;;;;;;;8.63;4.55;;;;;;;9.85;91.16;99330.53;5010819;28;20026;-69
2021/05/28 02:14:05;;;;;;;8.70;5.15;;;;;;;9.74;91.30;99327.44;5010632;28;20034;-69
2021/05/28 02:16:32;;;;;;;7.88;4.97;;;;;;;9.85;90.73;99344.03;5011571;28;20026;-69
2021/05/28 02:18:58;;;;;;;7.25;4.35;;;;;;;9.82;90.92;99339.03;5011656;28;20069;-69
2021/05/28 02:21:23;;;;;;;9.77;5.40;;;;;;;9.73;91.44;99328.47;5010534;28;20048;-69
2021/05/28 02:23:48;;;;;;;10.48;5.00;;;;;;;9.71;91.65;99335.91;5011500;28;20530;-69
2021/05/28 02:26:14;;;;;;;9.52;5.47;;;;;;;9.70;92.04;99328.84;5009870;28;20033;-70
2021/05/28 02:28:39;;;;;;;8.00;4.85;;;;;;;9.69;92.68;99333.38;5010103;28;20084;-69
2021/05/28 02:31:04;;;;;;;9.90;5.40;;;;;;;9.66;92.85;99322.94;5010492;28;20055;-69
2021/05/28 02:33:30;;;;;;;7.60;5.57;;;;;;;9.65;92.25;99326.69;5007543;28;20034;-69
2021/05/28 02:35:55;;;;;;;9.88;4.68;;;;;;;9.69;92.26;99322.56;5011317;28;20028;-69
2021/05/28 02:38:20;;;;;;;8.18;5.20;;;;;;;9.58;92.13;99317.63;5010455;28;20037;-69
2021/05/28 02:40:45;;;;;;;7.07;4.82;;;;;;;9.50;92.01;99317.72;5009628;28;20539;-69
2021/05/28 02:43:11;;;;;;;6.40;4.60;;;;;;;9.50;92.46;99318.56;5011830;28;20079;-69
2021/05/28 02:45:36;;;;;;;6.53;4.32;;;;;;;9.48;92.16;99322.47;5011596;28;20028;-69
2021/05/28 02:48:02;;;;;;;8.25;4.95;;;;;;;9.50;91.19;99331.22;5019165;28;20026;-69
2021/05/28 02:50:32;;;;;;;8.23;4.68;;;;;;;9.37;91.25;99313.78;5011460;28;20025;-69
2021/05/28 02:53:00;;;;;;;8.15;4.85;;;;;;;9.38;91.13;99320.03;4996975;28;20038;-70
2021/05/28 02:55:25;;;;;;;5.93;4.43;;;;;;;9.46;91.37;99333.47;5012173;28;20026;-69
2021/05/28 02:57:51;;;;;;;10.20;4.18;;;;;;;9.51;91.36;99341.00;5011149;28;20030;-69
2021/05/28 03:00:19;;;;;;;7.95;4.28;;;;;;;9.50;91.32;99323.97;5011066;28;20059;-69
2021/05/28 03:02:44;;;;;;;7.25;4.55;;;;;;;9.49;91.30;99338.50;5011232;28;20109;-69
2021/05/28 03:05:10;;;;;;;7.28;4.60;;;;;;;9.49;91.40;99343.06;5011613;28;20129;-69
2021/05/28 03:07:35;;;;;;;8.68;5.15;;;;;;;9.52;91.38;99338.13;5010836;28;20400;-70
2021/05/28 03:10:00;;;;;;;9.45;5.05;;;;;;;9.57;91.36;99343.00;5011236;28;20112;-70
2021/05/28 03:12:26;;;;;;;8.63;4.50;;;;;;;9.55;91.35;99351.25;5007051;28;20030;-70
2021/05/28 03:14:51;;;;;;;7.60;4.30;;;;;;;9.56;91.23;99341.28;4991522;28;20118;-70
2021/05/28 03:17:16;;;;;;;10.20;5.07;;;;;;;9.53;91.44;99344.38;5006336;28;20037;-70
2021/05/28 03:19:46;;;;;;;8.40;4.65;;;;;;;9.50;91.79;99344.72;5010962;28;20029;-70
2021/05/28 03:24:39;;;;;;;8.65;4.85;;;;;;;9.48;91.90;99327.88;5010870;28;20026;-70
2021/05/28 03:27:04;;;;;;;6.40;4.68;;;;;;;9.55;91.99;99331.53;5010878;28;20519;-70
2021/05/28 03:29:30;;;;;;;9.82;4.72;;;;;;;9.52;91.29;99332.72;5009256;28;20484;-69
2021/05/28 03:31:55;;;;;;;9.93;5.50;;;;;;;9.54;91.91;99346.91;5010929;28;20026;-69
2021/05/28 03:34:20;;;;;;;9.10;5.07;;;;;;;9.53;91.97;99338.97;5010659;28;20596;-69
2021/05/28 03:36:46;;;;;;;8.13;5.00;;;;;;;9.47;92.09;99334.31;5010205;28;20033;-70
2021/05/28 03:39:12;;;;;;;9.10;4.72;;;;;;;9.53;92.00;99345.19;4995945;28;20376;-69
2021/05/28 03:41:37;;;;;;;10.88;4.60;;;;;;;9.52;91.89;99342.69;5009578;28;20396;-70
2021/05/28 03:44:03;;;;;;;6.53;5.05;;;;;;;9.44;92.06;99333.63;5009089;28;20030;-70
2021/05/28 03:46:28;;;;;;;7.20;4.53;;;;;;;9.43;91.96;99329.28;5024998;28;20396;-70
2021/05/28 03:48:53;;;;;;;8.82;5.22;;;;;;;9.48;91.89;99346.78;5009378;28;20034;-70
2021/05/28 03:51:20;;;;;;;9.18;5.57;;;;;;;9.46;92.16;99354.22;5009603;28;20116;-70
2021/05/28 03:53:45;;;;;;;9.10;5.25;;;;;;;9.41;91.99;99336.72;5009886;28;20030;-69
2021/05/28 03:56:10;;;;;;;7.97;5.50;;;;;;;9.46;92.51;99346.09;5008879;28;20032;-70
2021/05/28 03:58:36;;;;;;;10.07;5.70;;;;;;;9.41;92.57;99342.13;5009897;28;20113;-70
2021/05/28 04:01:01;;;;;;;8.88;5.25;;;;;;;9.50;92.32;99352.84;5008891;28;20045;-69
2021/05/28 04:03:26;;;;;;;10.95;5.13;;;;;;;9.47;92.22;99332.44;5008374;28;20117;-70
2021/05/28 04:05:52;;;;;;;8.25;5.40;;;;;;;9.51;92.24;99346.41;5009751;28;20030;-69
2021/05/28 04:08:17;;;;;;;9.00;5.07;;;;;;;9.48;92.05;99342.19;5009037;28;20055;-70
2021/05/28 04:10:43;;;;;;;6.20;4.53;;;;;;;9.53;92.29;99345.19;5008917;28;20036;-70
2021/05/28 04:13:08;;;;;;;7.65;5.00;;;;;;;9.55;92.27;99347.72;5009530;28;20030;-69
2021/05/28 04:15:33;;;;;;;12.55;5.55;;;;;;;9.61;92.49;99352.38;5008476;28;20034;-70
2021/05/28 04:17:59;;;;;;;9.90;5.35;;;;;;;9.61;92.17;99347.81;4993260;28;20042;-69
2021/05/28 04:20:24;;;;;;;8.48;5.60;;;;;;;9.64;91.53;99349.31;5008733;28;20026;-69
2021/05/28 04:22:49;;;;;;;7.70;5.20;;;;;;;9.64;91.14;99346.59;5008120;28;20419;-69
2021/05/28 04:25:15;;;;;;;9.50;5.38;;;;;;;9.66;90.78;99339.16;5008500;28;20032;-70
2021/05/28 04:27:40;;;;;;;9.30;5.43;;;;;;;9.74;90.14;99341.78;5009536;28;20032;-70
2021/05/28 04:30:06;;;;;;;10.02;5.78;;;;;;;9.77;89.83;99327.94;5004788;28;20060;-70
2021/05/28 04:32:32;;;;;;;9.18;5.57;;;;;;;9.88;89.88;99326.63;5003294;28;20738;-70
2021/05/28 04:34:57;;;;;;;9.30;6.43;;;;;;;9.90;90.14;99334.53;5008321;28;20053;-70
2021/05/28 04:37:23;;;;;;;9.10;5.25;;;;;;;9.96;89.66;99339.22;5009318;28;20110;-70
2021/05/28 04:39:48;;;;;;;7.60;5.38;;;;;;;9.86;90.17;99321.38;5009225;28;20040;-70
2021/05/28 04:42:13;;;;;;;9.23;5.65;;;;;;;10.04;90.32;99334.53;5008685;28;20196;-70
2021/05/28 04:44:39;;;;;;;8.77;5.78;;;;;;;10.03;90.07;99321.19;5007552;28;20061;-70
2021/05/28 04:47:04;;;;;;;7.95;5.55;;;;;;;10.02;90.12;99322.22;5008303;28;20061;-69
2021/05/28 04:49:29;;;;;;;8.05;5.55;;;;;;;10.15;89.39;99332.41;5009556;28;20038;-70
2021/05/28 04:51:55;;;;;;;10.60;5.30;;;;;;;10.20;88.92;99341.63;5009043;28;20691;-69
2021/05/28 04:54:20;;;;;;;7.65;5.05;;;;;;;10.19;89.18;99344.50;5007960;28;20109;-70
2021/05/28 04:56:45;;;;;;;7.80;5.25;;;;;;;10.26;88.87;99340.84;5009456;28;20476;-69
2021/05/28 04:59:11;;;;;;;9.40;5.25;;;;;;;10.31;88.68;99353.84;5009043;28;20716;-70
2021/05/28 05:01:36;;;;;;;9.50;5.63;;;;;;;10.29;88.50;99356.72;5017753;28;20057;-70
2021/05/28 05:04:02;;;;;;;9.05;5.38;;;;;;;10.26;88.39;99342.72;5007622;28;20627;-71
2021/05/28 05:06:28;;;;;;;8.63;5.30;;;;;;;10.33;88.30;99359.09;5006837;28;20084;-70
2021/05/28 05:08:53;;;;;;;7.38;5.38;;;;;;;10.43;87.69;99348.81;5007400;28;20454;-69
2021/05/28 05:11:18;;;;;;;8.50;5.28;;;;;;;10.37;87.43;99350.38;5008620;28;20029;-74
2021/05/28 05:13:43;;;;;;;8.18;5.32;;;;;;;10.44;87.64;99359.44;5006475;28;20026;-75
2021/05/28 05:16:09;;;;;;;13.60;5.45;;;;;;;10.49;87.73;99351.59;4992703;28;20026;-75
2021/05/28 05:18:34;;;;;;;10.07;5.07;;;;;;;10.62;87.28;99369.00;4994048;28;20026;-71
2021/05/28 05:20:59;;;;;;;7.80;5.85;;;;;;;10.67;86.32;99375.53;4999865;28;20117;-72
2021/05/28 05:23:25;;;;;;;9.90;5.55;;;;;;;10.73;86.24;99363.94;4990592;28;20062;-72
2021/05/28 05:25:50;;;;;;;9.00;5.45;;;;;;;10.87;85.82;99377.63;4989691;28;20026;-63
2021/05/28 05:28:16;;;;;;;9.45;5.25;;;;;;;10.74;84.77;99365.63;4998380;28;20065;-70
2021/05/28 05:30:41;;;;;;;9.52;5.72;;;;;;;10.87;85.42;99353.25;5005020;28;20034;-71
2021/05/28 05:33:07;;;;;;;7.90;5.00;;;;;;;11.00;84.96;99371.50;5015116;28;20105;-71
2021/05/28 05:35:33;;;;;;;8.00;5.25;;;;;;;11.08;85.40;99369.53;5004450;28;20845;-67
2021/05/28 05:37:58;;;;;;;7.55;4.88;;;;;;;11.12;84.67;99383.53;5008321;28;20034;-69
2021/05/28 05:40:24;;;;;;;7.82;4.88;;;;;;;11.12;85.14;99386.22;5002913;28;20140;-68
2021/05/28 05:42:49;;;;;;;6.47;4.43;;;;;;;11.31;84.88;99377.44;4990188;28;20026;-67
2021/05/28 05:45:16;;;;;;;8.40;5.35;;;;;;;11.39;83.96;99382.72;4991881;28;20745;-68
2021/05/28 05:47:42;;;;;;;7.88;5.03;;;;;;;11.55;83.02;99375.38;5006092;28;20026;-76
2021/05/28 05:50:08;;;;;;;12.18;5.60;;;;;;;11.51;82.85;99361.38;4996099;28;20034;-74
2021/05/28 05:52:33;;;;;;;10.73;5.63;;;;;;;11.78;81.84;99378.69;4997418;28;20069;-73
2021/05/28 05:54:59;;;;;;;10.73;5.68;;;;;;;11.92;81.13;99378.81;4999797;28;20701;-74
2021/05/28 05:57:24;;;;;;;8.60;4.50;;;;;;;12.14;80.91;99376.88;5006779;28;20029;-67
2021/05/28 05:59:50;;;;;;;11.90;5.45;;;;;;;12.29;80.67;99391.16;4997187;28;20031;-67
2021/05/28 06:02:15;;;;;;;7.93;5.30;;;;;;;12.24;78.76;99380.06;4994335;28;20403;-68
2021/05/28 06:04:40;;;;;;;9.57;5.40;;;;;;;12.53;78.45;99395.25;5000924;28;20026;-68
2021/05/28 06:07:05;;;;;;;10.68;6.18;;;;;;;12.63;78.21;99379.44;5001074;28;20072;-67
2021/05/28 06:09:31;;;;;;;9.25;5.95;;;;;;;12.81;77.88;99384.31;5005352;28;20087;-67
2021/05/28 06:11:58;;;;;;;11.10;6.18;;;;;;;12.97;77.24;99391.25;5002653;28;20056;-70
2021/05/28 06:14:23;;;;;;;7.05;5.63;;;;;;;13.44;76.49;99396.78;5004330;28;20045;-68
2021/05/28 06:16:48;;;;;;;8.80;6.30;;;;;;;13.50;75.98;99401.41;5001366;28;20034;-68
2021/05/28 06:19:14;;;;;;;8.80;6.47;;;;;;;13.72;75.26;99400.16;5005091;28;20059;-68
2021/05/28 06:21:39;;;;;;;11.15;5.97;;;;;;;13.95;74.07;99385.31;5001087;28;20030;-69
2021/05/28 06:24:06;;;;;;;9.75;5.85;;;;;;;14.04;73.65;99411.22;5001015;28;20461;-68
2021/05/28 06:26:31;;;;;;;11.98;6.22;;;;;;;14.15;72.66;99393.44;5004634;28;20041;-68
2021/05/28 06:28:56;;;;;;;8.60;5.72;;;;;;;14.14;70.91;99405.38;5002730;28;20131;-68
2021/05/28 06:31:22;;;;;;;10.73;5.75;;;;;;;14.24;71.76;99412.03;5001203;28;20037;-69
2021/05/28 06:33:47;;;;;;;7.65;5.22;;;;;;;14.07;70.75;99405.38;5003032;28;20111;-75
2021/05/28 06:36:12;;;;;;;10.35;5.32;;;;;;;14.16;71.01;99408.72;5000028;28;20026;-68
2021/05/28 06:38:38;;;;;;;11.73;6.18;;;;;;;13.99;71.71;99411.03;4992700;28;20037;-69
2021/05/28 06:41:03;;;;;;;9.43;6.22;;;;;;;14.08;72.24;99406.22;5002193;28;20392;-69
2021/05/28 06:43:28;;;;;;;9.95;5.13;;;;;;;14.36;68.78;99392.34;5002215;28;20092;-69
2021/05/28 06:45:53;;;;;;;10.05;5.40;;;;;;;14.72;68.55;99394.53;4995991;28;20033;-70
2021/05/28 06:48:19;;;;;;;11.82;5.50;;;;;;;14.84;66.83;99400.16;5010886;28;20774;-69
2021/05/28 06:50:45;;;;;;;10.52;5.55;;;;;;;15.21;66.67;99401.22;5003218;28;20033;-69
2021/05/28 06:53:11;;;;;;;8.30;5.95;;;;;;;15.21;66.99;99409.41;5003292;28;20030;-69
2021/05/28 06:55:37;;;;;;;6.93;4.88;;;;;;;14.97;68.26;99413.72;4999143;28;20033;-69
2021/05/28 06:58:03;;;;;;;8.30;4.40;;;;;;;15.00;68.48;99415.19;4994730;28;20045;-70
2021/05/28 07:00:29;;;;;;;6.50;4.43;;;;;;;15.18;67.39;99406.28;4997250;28;20398;-69
2021/05/28 07:02:55;;;;;;;7.43;4.40;;;;;;;15.20;67.39;99407.75;5001741;28;20027;-69
2021/05/28 07:05:24;;;;;;;9.43;4.28;;;;;;;15.44;67.32;99417.03;5001135;28;20026;-69
2021/05/28 07:07:50;;;;;;;5.97;4.68;;;;;;;15.35;67.40;99401.97;4997145;28;20121;-69
2021/05/28 07:10:15;;;;;;;6.68;4.63;;;;;;;15.26;66.80;99422.38;5000846;28;20048;-69
2021/05/28 07:12:41;;;;;;;6.70;4.30;;;;;;;15.12;66.94;99419.75;4998408;28;20026;-69
2021/05/28 07:15:07;;;;;;;5.90;4.13;;;;;;;15.05;66.77;99435.28;4998874;28;20027;-69
2021/05/28 07:17:34;;;;;;;9.63;4.28;;;;;;;14.85;67.96;99419.00;5000052;28;20407;-66
2021/05/28 07:19:59;;;;;;;7.95;4.13;;;;;;;14.99;67.48;99418.97;5007886;28;20026;-75
2021/05/28 07:22:24;;;;;;;6.20;4.53;;;;;;;14.90;68.67;99438.25;5006043;28;20030;-75
2021/05/28 07:24:49;;;;;;;7.00;4.70;;;;;;;14.76;68.69;99441.28;4995691;28;20038;-76
2021/05/28 07:27:15;;;;;;;7.50;4.95;;;;;;;14.75;68.02;99434.13;4996802;28;20355;-68
2021/05/28 07:29:40;;;;;;;5.40;4.22;;;;;;;14.70;67.66;99432.09;4994986;28;20030;-68
2021/05/28 07:32:05;;;;;;;8.23;4.47;;;;;;;14.81;68.21;99445.03;5001272;28;20109;-75
2021/05/28 07:34:31;;;;;;;8.80;3.83;;;;;;;14.53;67.04;99442.59;5002901;28;20550;-73
2021/05/28 07:36:56;;;;;;;10.23;4.47;;;;;;;14.73;67.40;99428.09;4997520;28;20053;-74
2021/05/28 07:39:21;;;;;;;6.22;3.40;;;;;;;14.99;66.16;99438.88;5010658;28;20037;-74
2021/05/28 07:41:47;;;;;;;7.43;4.10;;;;;;;14.93;65.28;99430.72;5006002;28;20030;-74
2021/05/28 07:44:12;;;;;;;6.82;3.65;;;;;;;14.98;67.19;99433.63;4999161;28;20022;-72
2021/05/28 07:46:44;;;;;;;5.82;3.10;;;;;;;15.46;65.61;99431.28;4995402;28;20022;-73
2021/05/28 07:49:11;;;;;;;6.15;3.80;;;;;;;15.34;63.99;99443.94;5001835;28;20080;-73
2021/05/28 07:51:37;;;;;;;5.95;3.63;;;;;;;15.60;63.86;99442.94;5023768;28;20416;-74
2021/05/28 07:54:04;;;;;;;4.40;3.13;;;;;;;15.96;62.45;99452.34;4999060;28;20025;-75
2021/05/28 07:56:30;;;;;;;7.15;3.35;;;;;;;16.15;61.93;99451.34;5002111;28;20018;-77
2021/05/28 07:58:55;;;;;;;4.88;2.70;;;;;;;16.06;60.86;99446.38;5026836;28;20029;-76
2021/05/28 08:01:20;;;;;;;4.13;2.70;;;;;;;16.48;59.02;99442.00;5000860;28;20396;-76
2021/05/28 08:03:45;;;;;;;5.80;2.90;;;;;;;17.07;59.47;99445.94;4991453;28;20066;-75
2021/05/28 08:06:11;;;;;;;4.22;2.50;;;;;;;17.44;58.84;99432.19;5008619;28;20045;-76
2021/05/28 08:08:36;;;;;;;6.00;3.03;;;;;;;17.36;58.45;99443.47;5001292;28;20041;-75
2021/05/28 08:11:01;;;;;;;4.80;3.05;;;;;;;17.38;57.27;99445.97;5004564;28;20428;-76
2021/05/28 08:13:27;;;;;;;8.13;3.03;;;;;;;17.70;56.38;99441.06;5010106;28;20030;-71
2021/05/28 08:15:54;;;;;;;5.68;3.22;;;;;;;17.42;55.85;99441.69;5006059;28;20076;-73
2021/05/28 08:18:19;;;;;;;5.82;3.30;;;;;;;17.56;56.69;99439.63;5008050;28;20029;-76
2021/05/28 08:20:44;;;;;;;3.88;2.80;;;;;;;17.90;56.95;99419.75;5005855;28;22035;-76
2021/05/28 08:23:09;;;;;;;4.75;2.60;;;;;;;17.95;56.40;99443.69;5010635;28;20117;-74
2021/05/28 08:25:35;;;;;;;3.80;2.40;;;;;;;17.98;55.25;99440.47;5005375;28;20022;-72
2021/05/28 08:28:00;;;;;;;3.50;2.47;;;;;;;18.37;54.37;99449.06;5011579;28;20038;-72
2021/05/28 08:30:25;;;;;;;3.45;2.05;;;;;;;19.21;51.70;99440.47;5001555;28;20042;-69
2021/05/28 08:32:51;;;;;;;4.43;2.40;;;;;;;19.53;52.26;99445.47;4993407;28;20030;-69
2021/05/28 08:35:16;;;;;;;4.63;2.47;;;;;;;19.83;51.68;99437.81;4991184;28;20129;-69
2021/05/28 08:37:42;;;;;;;5.03;2.47;;;;;;;20.15;50.47;99426.25;5003772;28;20399;-70
2021/05/28 08:40:09;;;;;;;5.45;2.38;;;;;;;20.28;49.40;99444.31;5008242;28;20116;-69
2021/05/28 08:42:34;;;;;;;5.50;2.75;;;;;;;20.17;50.43;99426.78;4995037;28;20119;-70
2021/05/28 08:45:00;;;;;;;5.60;2.78;;;;;;;20.26;50.12;99436.28;5000137;28;20086;-67
2021/05/28 08:47:26;;;;;;;4.78;3.00;;;;;;;19.76;51.58;99431.63;5005517;28;20034;-69
2021/05/28 08:49:52;;;;;;;5.45;2.90;;;;;;;20.66;50.81;99432.50;4996437;28;20134;-67
2021/05/28 08:52:20;;;;;;;4.47;2.90;;;;;;;23.62;43.28;99420.22;4989812;28;20030;-67
2021/05/28 08:54:47;;;;;;;4.75;2.25;;;;;;;25.74;37.55;99413.88;5001594;28;20132;-67
2021/05/28 08:57:13;;;;;;;3.90;2.10;;;;;;;27.81;35.24;99412.94;4989889;28;20480;-69
2021/05/28 08:59:38;;;;;;;3.50;1.90;;;;;;;26.87;35.03;99403.38;4996914;28;20038;-66
2021/05/28 09:02:03;;;;;;;3.33;2.00;;;;;;;25.88;37.92;99414.88;5003039;28;20036;-65
2021/05/28 09:04:29;;;;;;;3.03;1.65;;;;;;;25.97;37.45;99415.09;5000062;28;20034;-67
2021/05/28 09:06:54;;;;;;;2.75;1.77;;;;;;;25.16;39.52;99416.44;5002632;28;20381;-72
2021/05/28 09:09:23;;;;;;;4.30;2.13;;;;;;;22.89;41.77;99414.72;5007221;28;20506;-71
2021/05/28 09:12:04;;;;;;;3.10;1.90;;;;;;;21.08;45.18;99420.09;5003359;28;20105;-68
2021/05/28 09:14:32;;;;;;;4.18;1.98;;;;;;;22.31;44.35;99420.19;5002301;28;20142;-65
2021/05/28 09:16:58;;;;;;;2.83;1.60;;;;;;;25.21;37.96;99413.66;5001475;28;20040;-67
2021/05/28 09:19:24;;;;;;;3.40;1.88;;;;;;;25.49;34.18;99407.41;5005306;28;20022;-67
2021/05/28 09:21:58;;;;;;;2.72;1.60;;;;;;;27.16;32.65;99405.22;5007867;28;20034;-65
2021/05/28 09:24:31;;;;;;;2.83;1.30;;;;;;;27.21;33.11;99402.41;5008014;28;20068;-65
2021/05/28 09:26:56;;;;;;;2.40;1.48;;;;;;;26.92;33.52;99402.47;5008596;28;20038;-63
2021/05/28 09:29:22;;;;;;;2.50;1.40;;;;;;;25.45;36.04;99403.53;5007730;28;20029;-63
2021/05/28 09:31:47;;;;;;;3.63;1.40;;;;;;;25.90;36.09;99409.88;5001394;28;20022;-63
2021/05/28 09:34:12;;;;;;;3.80;1.40;;;;;;;27.56;33.79;99408.56;5009398;28;20216;-63
2021/05/28 09:36:40;;;;;;;3.03;1.50;;;;;;;28.68;32.20;99402.25;5009614;28;20030;-63
2021/05/28 09:39:13;;;;;;;3.85;1.38;;;;;;;30.50;29.28;99401.09;5007944;28;20099;-63
2021/05/28 09:42:08;;;;;;;1.55;0.90;;;;;;;30.84;28.74;99404.38;5013186;28;20036;-63
2021/05/28 09:44:33;;;;;;;1.77;1.20;;;;;;;31.49;28.73;99400.75;5005321;28;20116;-63
2021/05/28 09:47:04;;;;;;;1.77;1.10;;;;;;;30.63;27.72;99402.16;5001268;28;20125;-63
2021/05/28 09:49:41;;;;;;;2.42;1.17;;;;;;;29.16;29.82;99401.81;5005283;28;20053;-63
2021/05/28 09:52:11;;;;;;;1.20;1.00;;;;;;;26.66;33.24;99399.19;5005728;28;20026;-63
2021/05/28 09:54:52;;;;;;;2.30;1.15;;;;;;;24.39;37.46;99405.56;5003639;28;20838;-63
2021/05/28 09:57:40;;;;;;;2.72;1.00;;;;;;;24.24;37.58;99398.16;5010709;28;20030;-62
2021/05/28 10:00:21;;;;;;;2.15;1.23;;;;;;;24.25;38.07;99391.50;5011928;28;20698;-63
2021/05/28 10:02:47;;;;;;;1.85;1.10;;;;;;;24.60;37.97;99389.78;5009974;28;20092;-63
2021/05/28 10:05:22;;;;;;;3.17;1.50;;;;;;;24.61;38.40;99397.81;5014134;28;20056;-62
2021/05/28 10:07:47;;;;;;;2.17;1.45;;;;;;;23.81;37.91;99394.84;5012225;28;20026;-63
2021/05/28 10:10:14;;;;;;;2.88;1.40;;;;;;;24.52;40.28;99395.88;5011642;28;20029;-62
2021/05/28 10:12:40;;;;;;;3.70;1.60;;;;;;;24.48;39.00;99396.44;5008393;28;20040;-62
2021/05/28 10:15:08;;;;;;;2.50;2.13;;;;;;;24.43;39.35;99396.44;5006712;28;20034;-63
2021/05/28 10:17:34;;;;;;;6.53;2.37;;;;;;;25.24;38.42;99393.69;5009948;28;20475;-63
2021/05/28 10:20:00;;;;;;;4.13;2.20;;;;;;;24.42;39.28;99392.03;5003937;28;20272;-67
2021/05/28 10:22:27;;;;;;;4.43;2.20;;;;;;;23.96;40.79;99399.53;5001243;28;20108;-68
2021/05/28 10:24:52;;;;;;;3.95;2.28;;;;;;;24.04;40.06;99385.16;5009656;28;20483;-68
2021/05/28 10:27:24;;;;;;;4.80;2.20;;;;;;;26.00;37.68;99384.84;5008965;28;20026;-68
2021/05/28 10:29:54;;;;;;;3.92;1.90;;;;;;;27.88;34.68;99385.59;5009196;28;20037;-68
2021/05/28 10:32:21;;;;;;;1.92;1.45;;;;;;;29.37;32.00;99375.16;5005890;28;20026;-68
2021/05/28 10:35:03;;;;;;;3.15;1.80;;;;;;;28.91;30.83;99380.91;5007394;28;20073;-68
2021/05/28 10:37:30;;;;;;;3.35;1.90;;;;;;;28.71;32.46;99379.34;5009340;28;20030;-68
2021/05/28 10:39:55;;;;;;;2.80;1.30;;;;;;;27.13;34.78;99371.66;5009743;28;20119;-68
2021/05/28 10:42:21;;;;;;;2.65;1.30;;;;;;;26.00;35.75;99370.97;5009448;28;20084;-68
2021/05/28 10:44:46;;;;;;;3.95;1.77;;;;;;;25.31;37.07;99377.59;5009812;28;20487;-68
2021/05/28 10:47:11;;;;;;;4.45;1.40;;;;;;;24.35;37.78;99382.34;5011492;28;20550;-69
2021/05/28 10:49:44;;;;;;;4.53;1.93;;;;;;;23.11;40.29;99375.94;5012068;28;20038;-68
2021/05/28 10:52:14;;;;;;;4.22;2.10;;;;;;;22.44;42.36;99380.31;5009785;28;20030;-68
2021/05/28 10:54:43;;;;;;;6.75;2.00;;;;;;;22.23;43.07;99375.78;5010217;28;20030;-68
2021/05/28 10:57:19;;;;;;;4.10;1.48;;;;;;;23.52;40.52;99372.41;5009811;28;20220;-66
2021/05/28 10:59:47;;;;;;;2.67;1.38;;;;;;;26.05;37.69;99356.25;5004767;28;20045;-67
2021/05/28 11:02:13;;;;;;;2.50;1.30;;;;;;;28.61;33.95;99341.38;5009898;28;20029;-67
2021/05/28 11:04:38;;;;;;;5.80;1.25;;;;;;;30.79;30.77;99366.22;5011602;28;20052;-67
2021/05/28 11:07:03;;;;;;;2.33;1.30;;;;;;;30.49;31.96;99367.91;5010042;28;20022;-67
2021/05/28 11:09:46;;;;;;;2.65;1.45;;;;;;;28.33;32.51;99366.41;5011278;28;20836;-68
2021/05/28 11:12:26;;;;;;;1.63;1.10;;;;;;;26.02;36.40;99370.69;5009819;28;20030;-67
2021/05/28 11:15:03;;;;;;;1.50;0.85;;;;;;;24.17;38.51;99370.75;5009776;28;20032;-67
2021/05/28 11:17:29;;;;;;;3.30;1.30;;;;;;;23.30;41.29;99369.91;5020883;28;20121;-67
2021/05/28 11:19:57;;;;;;;1.58;0.98;;;;;;;23.37;39.71;99357.50;4994554;28;20113;-67
2021/05/28 11:22:39;;;;;;;2.25;1.17;;;;;;;22.45;42.51;99376.47;5008339;28;20606;-66
2021/05/28 11:25:06;;;;;;;3.72;1.40;;;;;;;24.44;38.01;99364.06;5002785;28;20847;-66
2021/05/28 11:27:32;;;;;;;1.50;1.38;;;;;;;26.28;36.12;99367.66;5005865;28;20500;-66
2021/05/28 11:30:03;;;;;;;1.83;0.77;;;;;;;25.85;35.17;99367.50;5009928;28;20080;-67
2021/05/28 11:32:44;;;;;;;1.98;1.00;;;;;;;27.22;33.60;99345.75;5001139;28;20050;-67